Time;durP1;ratioP1;P1;durP2;ratioP2;P2;SDS_P1;SDS_P2;PMS_P1;PMS_P2;Temp;Humidity;BMP_temperature;BMP_pressure;BME280_temperature;BME280_humidity;BME280_pressure;Samples;Min_cycle;Max_cycle;Signal;HPM_P1;HPM_P2
2021/12/18 00:01:05;;;;;;;28.80;19.60;;;3.40;99.90;;;;;;5034123;28;20025;-93
2021/12/18 00:03:31;;;;;;;35.58;21.52;;;3.30;99.90;;;;;;5034764;28;20282;-92
2021/12/18 00:05:57;;;;;;;35.30;22.35;;;3.30;99.90;;;;;;5016202;28;20025;-92
2021/12/18 00:08:23;;;;;;;38.78;22.75;;;3.10;99.90;;;;;;5016409;28;20087;-93
2021/12/18 00:10:49;;;;;;;34.78;22.45;;;3.00;99.90;;;;;;5035161;28;20021;-92
2021/12/18 00:13:16;;;;;;;37.45;22.40;;;3.20;99.90;;;;;;5034062;28;20025;-93
2021/12/18 00:15:42;;;;;;;34.25;21.88;;;3.00;99.90;;;;;;5016788;28;20549;-93
2021/12/18 00:18:08;;;;;;;34.30;22.38;;;2.70;99.90;;;;;;5033712;28;20107;-92
2021/12/18 00:20:36;;;;;;;34.28;21.73;;;3.10;99.90;;;;;;5033287;28;20218;-92
2021/12/18 00:23:02;;;;;;;35.78;22.40;;;3.30;99.90;;;;;;5035370;28;20041;-93
2021/12/18 00:25:28;;;;;;;38.03;23.83;;;3.80;99.90;;;;;;5016385;28;20033;-93
2021/12/18 00:27:53;;;;;;;38.85;24.58;;;3.60;99.90;;;;;;5016532;28;20032;-92
2021/12/18 00:30:19;;;;;;;41.97;24.92;;;3.70;99.90;;;;;;5016646;28;20037;-93
2021/12/18 00:32:45;;;;;;;35.90;22.85;;;3.40;99.90;;;;;;5033882;28;20025;-93
2021/12/18 00:35:11;;;;;;;38.13;23.92;;;3.60;99.90;;;;;;5016472;28;20397;-93
2021/12/18 00:37:37;;;;;;;39.17;24.25;;;3.80;99.90;;;;;;5017548;28;20031;-93
2021/12/18 00:40:08;;;;;;;37.45;23.40;;;4.10;99.90;;;;;;5038277;28;20096;-93
2021/12/18 00:44:59;;;;;;;37.50;23.98;;;4.00;99.90;;;;;;5036698;28;20458;-93
2021/12/18 00:47:25;;;;;;;35.42;22.85;;;3.60;99.90;;;;;;5037695;28;20108;-93
2021/12/18 00:49:50;;;;;;;35.08;22.02;;;3.60;99.90;;;;;;5040425;28;20040;-92
2021/12/18 00:52:16;;;;;;;36.65;23.25;;;3.70;99.90;;;;;;5027311;28;20064;-93
2021/12/18 00:54:41;;;;;;;34.42;21.17;;;3.90;99.90;;;;;;5021173;28;20456;-92
2021/12/18 00:57:07;;;;;;;33.13;21.23;;;4.10;99.90;;;;;;5019469;28;20049;-93
2021/12/18 00:59:34;;;;;;;30.85;20.60;;;4.40;99.90;;;;;;5021044;28;20048;-92
2021/12/18 01:02:00;;;;;;;35.28;22.70;;;4.30;99.90;;;;;;5038019;28;20026;-93
2021/12/18 01:04:26;;;;;;;35.75;23.58;;;4.50;99.90;;;;;;5025820;28;20038;-93
2021/12/18 01:06:52;;;;;;;39.83;23.67;;;3.90;99.90;;;;;;5037415;28;20096;-93
2021/12/18 01:09:23;;;;;;;37.85;22.10;;;4.10;99.90;;;;;;5019723;28;20116;-93
2021/12/18 01:11:49;;;;;;;32.78;21.15;;;4.20;99.90;;;;;;5036838;28;20022;-93
2021/12/18 01:24:49;;;;;;;31.33;20.42;;;4.50;99.90;;;;;;5038635;28;20064;-93
2021/12/18 01:27:15;;;;;;;31.48;20.85;;;4.50;99.90;;;;;;5036936;28;20525;-93
2021/12/18 01:29:40;;;;;;;31.70;20.90;;;5.00;99.90;;;;;;5036287;28;20045;-93
2021/12/18 01:32:07;;;;;;;33.67;21.20;;;4.80;99.90;;;;;;5037039;28;20025;-93
2021/12/18 01:34:33;;;;;;;34.53;22.00;;;4.30;99.90;;;;;;5038198;28;20030;-94
2021/12/18 01:36:59;;;;;;;32.60;21.33;;;4.20;99.90;;;;;;5019739;28;20032;-94
2021/12/18 01:39:24;;;;;;;32.60;22.73;;;3.90;99.90;;;;;;5003126;28;20029;-93
2021/12/18 01:52:40;;;;;;;38.47;24.00;;;3.90;99.90;;;;;;4976291;28;20154;-92
2021/12/18 01:55:07;;;;;;;34.00;21.45;;;3.30;99.90;;;;;;4976456;28;20614;-92
2021/12/18 01:57:33;;;;;;;34.15;22.23;;;3.50;99.90;;;;;;4962032;28;20451;-93
2021/12/18 01:59:59;;;;;;;31.90;21.20;;;3.70;99.90;;;;;;4994432;28;20027;-93
2021/12/18 02:02:25;;;;;;;33.88;21.02;;;3.90;99.90;;;;;;4987073;28;20441;-93
2021/12/18 02:04:51;;;;;;;32.95;21.73;;;4.00;99.90;;;;;;4986765;28;20092;-93
2021/12/18 02:07:17;;;;;;;34.20;21.35;;;3.90;99.90;;;;;;4993486;28;20027;-93
2021/12/18 02:12:56;;;;;;;35.25;22.92;;;4.00;99.90;;;;;;4960754;28;20117;-92
2021/12/18 02:20:50;;;;;;;36.75;22.95;;;3.90;99.90;;;;;;4999554;28;20040;-93
2021/12/18 02:23:16;;;;;;;38.67;24.30;;;4.00;99.90;;;;;;5051602;28;20044;-93
2021/12/18 02:25:45;;;;;;;34.65;22.88;;;4.10;99.90;;;;;;5030623;28;20026;-93
2021/12/18 02:28:17;;;;;;;32.35;22.42;;;4.20;99.90;;;;;;5041692;28;20036;-93
2021/12/18 02:30:43;;;;;;;34.67;22.67;;;4.30;99.90;;;;;;5037929;28;20034;-93
2021/12/18 02:33:09;;;;;;;34.13;22.95;;;4.40;99.90;;;;;;5037534;28;20465;-93
2021/12/18 02:35:42;;;;;;;36.80;23.80;;;4.20;99.90;;;;;;5022508;28;20022;-94
2021/12/18 02:38:17;;;;;;;41.40;23.92;;;4.30;99.90;;;;;;5024271;28;20033;-93
2021/12/18 02:43:47;;;;;;;36.50;22.80;;;4.20;99.90;;;;;;4951330;28;20031;-94
2021/12/18 02:46:19;;;;;;;37.28;23.38;;;4.10;99.90;;;;;;4951334;28;20079;-93
2021/12/18 02:48:46;;;;;;;38.33;23.70;;;4.00;99.90;;;;;;4956953;28;20130;-94
2021/12/18 02:51:13;;;;;;;33.42;21.65;;;4.10;99.90;;;;;;4923735;28;20076;-93
2021/12/18 02:53:43;;;;;;;35.65;22.90;;;4.40;99.90;;;;;;4925592;29;20043;-93
2021/12/18 02:56:10;;;;;;;35.00;22.77;;;4.90;99.90;;;;;;4934006;29;20035;-94
2021/12/18 02:58:41;;;;;;;37.22;22.63;;;4.40;99.90;;;;;;4955160;28;20035;-93
2021/12/18 03:01:12;;;;;;;34.58;22.83;;;4.40;99.90;;;;;;4936584;29;20032;-93
2021/12/18 03:03:40;;;;;;;34.75;22.60;;;4.90;99.90;;;;;;4939292;29;20407;-94
2021/12/18 03:09:00;;;;;;;34.90;22.23;;;4.50;99.90;;;;;;4955651;28;20044;-92
2021/12/18 03:27:43;;;;;;;36.97;23.02;;;4.60;99.90;;;;;;5036791;28;20033;-93
2021/12/18 03:30:09;;;;;;;34.03;21.98;;;4.70;99.90;;;;;;5035181;28;20052;-93
2021/12/18 03:32:35;;;;;;;32.92;21.98;;;4.60;99.90;;;;;;5033964;28;20040;-94
2021/12/18 03:35:01;;;;;;;34.30;22.02;;;4.70;99.90;;;;;;5035288;28;20029;-94
2021/12/18 03:37:26;;;;;;;36.97;22.20;;;4.50;99.90;;;;;;5039977;28;20040;-93
2021/12/18 03:39:52;;;;;;;32.00;21.48;;;4.50;99.90;;;;;;5036868;28;20022;-94
2021/12/18 03:42:18;;;;;;;32.67;21.73;;;4.20;99.90;;;;;;5035367;28;20044;-94
2021/12/18 03:44:44;;;;;;;34.47;21.70;;;4.40;99.90;;;;;;5035230;28;20037;-94
2021/12/18 03:47:10;;;;;;;33.65;21.95;;;4.80;99.90;;;;;;5039704;28;20035;-94
2021/12/18 03:49:36;;;;;;;34.22;21.88;;;4.50;99.90;;;;;;5036451;28;20065;-94
2021/12/18 03:52:02;;;;;;;35.15;21.98;;;4.60;99.90;;;;;;5034641;28;20029;-93
2021/12/18 03:54:28;;;;;;;34.25;22.42;;;4.60;99.90;;;;;;5033835;28;20025;-94
2021/12/18 03:56:54;;;;;;;34.03;22.08;;;4.50;99.90;;;;;;5033591;28;20056;-93
2021/12/18 03:59:19;;;;;;;33.38;21.40;;;4.40;99.90;;;;;;5036735;28;20037;-93
2021/12/18 04:01:45;;;;;;;30.95;20.80;;;4.30;99.90;;;;;;5034349;28;20037;-93
2021/12/18 04:04:11;;;;;;;35.72;22.33;;;4.20;99.90;;;;;;5035523;28;20498;-93
2021/12/18 04:06:41;;;;;;;32.83;21.40;;;4.50;99.90;;;;;;5034822;28;20017;-93
2021/12/18 04:09:06;;;;;;;36.92;23.50;;;4.30;99.90;;;;;;5033514;28;20034;-93
2021/12/18 04:11:33;;;;;;;34.40;22.30;;;4.30;99.90;;;;;;5033723;28;20036;-94
2021/12/18 04:13:58;;;;;;;35.40;22.95;;;4.40;99.90;;;;;;5039781;28;20037;-94
2021/12/18 04:16:24;;;;;;;39.70;24.42;;;4.50;99.90;;;;;;5034121;28;20032;-93
2021/12/18 04:18:50;;;;;;;34.50;22.10;;;4.60;99.90;;;;;;5034275;28;20088;-93
2021/12/18 04:21:16;;;;;;;33.50;21.75;;;4.60;99.90;;;;;;5017358;28;20028;-93
2021/12/18 04:23:41;;;;;;;34.72;21.92;;;4.30;99.90;;;;;;5034346;28;20092;-94
2021/12/18 04:26:07;;;;;;;31.13;21.50;;;4.20;99.90;;;;;;5033246;28;20037;-94
2021/12/18 04:28:32;;;;;;;36.50;22.15;;;4.30;99.90;;;;;;5016724;28;20057;-93
2021/12/18 04:30:58;;;;;;;34.03;21.60;;;4.70;99.90;;;;;;5017624;28;20021;-93
2021/12/18 04:33:24;;;;;;;35.03;22.67;;;4.40;99.90;;;;;;5017230;28;20056;-94
2021/12/18 04:35:50;;;;;;;31.33;20.77;;;4.50;99.90;;;;;;5033809;28;20516;-94
2021/12/18 04:38:16;;;;;;;32.38;20.80;;;4.60;99.90;;;;;;5033528;28;20038;-93
2021/12/18 04:40:43;;;;;;;34.03;22.02;;;5.10;99.90;;;;;;5033972;28;20406;-94
2021/12/18 04:43:09;;;;;;;33.97;22.40;;;5.10;99.90;;;;;;5035386;28;20045;-94
2021/12/18 04:45:34;;;;;;;36.25;22.13;;;4.60;99.90;;;;;;5034259;28;20030;-94
2021/12/18 04:48:00;;;;;;;31.75;21.42;;;4.60;99.90;;;;;;5033170;28;20068;-94
2021/12/18 04:50:26;;;;;;;31.83;21.52;;;4.90;99.90;;;;;;5033915;28;20104;-94
2021/12/18 04:52:52;;;;;;;36.30;23.73;;;4.70;99.90;;;;;;5021701;28;20049;-94
2021/12/18 04:55:19;;;;;;;33.80;22.98;;;4.90;99.90;;;;;;5023400;28;20515;-94
2021/12/18 04:57:44;;;;;;;35.05;23.38;;;5.00;99.90;;;;;;5017781;28;20033;-94
2021/12/18 05:00:14;;;;;;;33.58;21.83;;;4.60;99.90;;;;;;5033742;28;20096;-94
2021/12/18 05:02:43;;;;;;;32.63;21.55;;;4.60;99.90;;;;;;5034768;28;20030;-87
2021/12/18 05:05:10;;;;;;;34.28;23.13;;;4.40;99.90;;;;;;5032143;28;20043;-86
2021/12/18 05:07:36;;;;;;;35.00;22.35;;;4.90;99.90;;;;;;5032719;28;20029;-87
2021/12/18 05:10:05;;;;;;;32.85;21.95;;;4.30;99.90;;;;;;5032721;28;20036;-87
2021/12/18 05:12:31;;;;;;;34.33;22.65;;;4.50;99.90;;;;;;5032898;28;20029;-87
2021/12/18 05:14:57;;;;;;;35.35;22.38;;;5.30;99.90;;;;;;5031426;28;20084;-86
2021/12/18 05:17:22;;;;;;;36.75;23.77;;;4.30;99.90;;;;;;5032159;28;20025;-87
2021/12/18 05:19:48;;;;;;;39.17;23.55;;;4.30;99.90;;;;;;5031612;28;20028;-87
2021/12/18 05:22:14;;;;;;;39.85;24.38;;;4.80;99.90;;;;;;5032787;28;20391;-86
2021/12/18 05:24:39;;;;;;;31.90;22.77;;;4.10;99.90;;;;;;5034810;28;20040;-87
2021/12/18 05:27:05;;;;;;;37.13;24.25;;;4.30;99.90;;;;;;5035500;28;20397;-87
2021/12/18 05:29:31;;;;;;;35.20;21.95;;;4.40;99.90;;;;;;5035753;28;20029;-87
2021/12/18 05:31:56;;;;;;;35.80;22.88;;;4.30;99.90;;;;;;5036125;28;20060;-87
2021/12/18 05:34:24;;;;;;;37.40;23.23;;;4.90;99.90;;;;;;5036041;28;20056;-86
2021/12/18 05:39:20;;;;;;;35.45;22.55;;;4.20;99.90;;;;;;5036013;28;20025;-86
2021/12/18 05:41:47;;;;;;;39.83;23.52;;;4.80;99.90;;;;;;5034781;28;20044;-87
2021/12/18 05:44:14;;;;;;;37.20;23.95;;;4.30;99.90;;;;;;5018243;28;20060;-86
2021/12/18 05:46:40;;;;;;;34.15;22.52;;;5.00;99.90;;;;;;5035306;28;20039;-87
2021/12/18 05:49:06;;;;;;;35.85;22.88;;;4.40;99.90;;;;;;5035006;28;20112;-86
2021/12/18 05:51:32;;;;;;;36.47;22.83;;;4.40;99.90;;;;;;5035482;28;20017;-87
2021/12/18 05:53:58;;;;;;;37.65;23.58;;;4.80;99.90;;;;;;5035128;28;20053;-86
2021/12/18 05:56:24;;;;;;;34.58;23.38;;;5.20;99.90;;;;;;5034397;28;20080;-87
2021/12/18 05:58:50;;;;;;;33.78;22.45;;;5.20;99.90;;;;;;5035544;28;20029;-87
2021/12/18 06:01:15;;;;;;;35.45;22.52;;;5.10;99.90;;;;;;5036418;28;20612;-87
2021/12/18 06:03:42;;;;;;;35.80;23.58;;;4.60;99.90;;;;;;5035528;28;20045;-87
2021/12/18 06:06:08;;;;;;;31.83;21.90;;;4.60;99.90;;;;;;5035316;28;20438;-87
2021/12/18 06:08:35;;;;;;;35.10;22.55;;;4.40;99.90;;;;;;5034482;28;20109;-87
2021/12/18 06:11:08;;;;;;;33.45;22.25;;;4.80;99.90;;;;;;5035434;28;20075;-87
2021/12/18 06:13:34;;;;;;;34.83;22.13;;;4.80;99.90;;;;;;5035432;28;20034;-87
2021/12/18 06:15:59;;;;;;;37.38;22.90;;;4.50;99.90;;;;;;5018020;28;20049;-87
2021/12/18 06:18:25;;;;;;;34.38;22.05;;;4.50;99.90;;;;;;5035335;28;20500;-87
2021/12/18 06:20:51;;;;;;;37.28;23.15;;;5.10;99.90;;;;;;5034496;28;20069;-87
2021/12/18 06:23:16;;;;;;;34.85;22.33;;;4.60;99.90;;;;;;5035500;28;20526;-87
2021/12/18 06:25:42;;;;;;;38.05;25.25;;;4.90;99.90;;;;;;5034673;28;20021;-86
2021/12/18 06:28:07;;;;;;;42.85;27.25;;;4.50;99.90;;;;;;5034723;28;20076;-87
2021/12/18 06:30:33;;;;;;;46.65;28.98;;;4.60;99.90;;;;;;5035478;28;20025;-87
2021/12/18 06:32:59;;;;;;;43.33;27.23;;;4.70;99.90;;;;;;5033701;28;20022;-87
2021/12/18 06:35:24;;;;;;;48.53;28.40;;;5.20;99.90;;;;;;5034263;28;20112;-87
2021/12/18 06:37:50;;;;;;;46.90;28.05;;;4.60;99.90;;;;;;5034334;28;20025;-87
2021/12/18 06:40:16;;;;;;;52.55;29.52;;;4.60;99.90;;;;;;5017962;28;20477;-87
2021/12/18 06:42:43;;;;;;;49.92;29.02;;;4.60;99.90;;;;;;5034277;28;20468;-87
2021/12/18 06:45:10;;;;;;;38.35;25.05;;;4.60;99.90;;;;;;5034328;28;20025;-86
2021/12/18 06:47:36;;;;;;;39.65;25.25;;;4.70;99.90;;;;;;5030993;28;20383;-87
2021/12/18 06:50:05;;;;;;;36.72;23.50;;;4.50;99.90;;;;;;5034752;28;20160;-87
2021/12/18 06:52:31;;;;;;;36.10;22.70;;;4.40;99.90;;;;;;5017334;28;20036;-86
2021/12/18 06:54:57;;;;;;;39.03;24.50;;;4.50;99.90;;;;;;5034093;28;20397;-87
2021/12/18 06:57:22;;;;;;;40.95;24.67;;;4.40;99.90;;;;;;5033972;28;20060;-86
2021/12/18 06:59:49;;;;;;;41.17;25.13;;;4.40;99.90;;;;;;5033888;28;20029;-85
2021/12/18 07:02:15;;;;;;;41.97;23.92;;;4.50;99.90;;;;;;5033700;28;20031;-87
2021/12/18 07:04:42;;;;;;;42.60;25.30;;;4.60;99.90;;;;;;5033853;28;20057;-87
2021/12/18 07:07:07;;;;;;;43.38;26.33;;;5.50;99.90;;;;;;5016305;28;20519;-87
2021/12/18 07:09:33;;;;;;;52.17;29.00;;;4.80;99.90;;;;;;5034309;28;20116;-87
2021/12/18 07:11:59;;;;;;;56.13;31.85;;;4.70;99.90;;;;;;5033118;28;20101;-87
2021/12/18 07:14:24;;;;;;;50.28;29.13;;;5.10;99.90;;;;;;5033785;28;20056;-87
2021/12/18 07:16:50;;;;;;;55.35;31.52;;;5.30;99.90;;;;;;5033548;28;20401;-86
2021/12/18 07:19:16;;;;;;;56.78;31.58;;;4.70;99.90;;;;;;5034892;28;20071;-87
2021/12/18 07:21:41;;;;;;;49.63;28.83;;;5.30;99.90;;;;;;5016072;28;20029;-87
2021/12/18 07:24:07;;;;;;;53.17;30.23;;;5.20;99.90;;;;;;5033118;28;20040;-87
2021/12/18 07:26:33;;;;;;;39.97;24.52;;;4.70;99.90;;;;;;5033109;28;20030;-87
2021/12/18 07:29:00;;;;;;;39.55;24.58;;;4.30;99.90;;;;;;5033398;28;20083;-86
2021/12/18 07:31:26;;;;;;;42.22;25.15;;;4.50;99.90;;;;;;5032747;28;20026;-89
2021/12/18 07:33:52;;;;;;;44.28;26.27;;;4.60;99.90;;;;;;5034053;28;20036;-88
2021/12/18 07:36:18;;;;;;;41.30;26.25;;;4.70;99.90;;;;;;5015902;28;20512;-87
2021/12/18 07:38:44;;;;;;;39.15;25.10;;;5.10;99.90;;;;;;5033045;28;20035;-88
2021/12/18 07:41:10;;;;;;;42.10;25.15;;;4.40;99.90;;;;;;5033624;28;20037;-88
2021/12/18 07:43:36;;;;;;;39.67;24.95;;;5.30;99.90;;;;;;5034601;28;20410;-88
2021/12/18 07:46:02;;;;;;;38.92;24.17;;;4.80;99.90;;;;;;5033037;28;20048;-88
2021/12/18 07:48:28;;;;;;;40.95;25.33;;;5.70;99.90;;;;;;5015101;28;20090;-88
2021/12/18 07:50:54;;;;;;;41.10;25.90;;;5.30;99.90;;;;;;5032861;28;20484;-88
2021/12/18 07:53:21;;;;;;;45.03;27.98;;;5.00;99.90;;;;;;5015680;28;20048;-88
2021/12/18 07:55:47;;;;;;;45.90;26.77;;;5.50;99.90;;;;;;5033301;28;20021;-88
2021/12/18 07:58:13;;;;;;;44.22;25.80;;;5.40;99.90;;;;;;5034070;28;20111;-88
2021/12/18 08:00:39;;;;;;;47.97;27.75;;;5.20;99.90;;;;;;5032485;28;20026;-88
2021/12/18 08:03:04;;;;;;;51.10;29.13;;;5.40;99.90;;;;;;5032181;28;20452;-88
2021/12/18 08:05:30;;;;;;;48.58;26.65;;;5.10;99.90;;;;;;5032789;28;20032;-89
2021/12/18 08:07:56;;;;;;;52.78;28.02;;;5.30;99.90;;;;;;5032621;28;20029;-88
2021/12/18 08:10:21;;;;;;;50.47;27.63;;;5.70;99.90;;;;;;5032713;28;20136;-88
2021/12/18 08:12:47;;;;;;;54.97;29.23;;;5.00;99.90;;;;;;5034230;28;20073;-88
2021/12/18 08:15:13;;;;;;;52.20;28.27;;;5.00;99.90;;;;;;5032307;28;20041;-88
2021/12/18 08:17:38;;;;;;;59.60;30.30;;;5.00;99.90;;;;;;5032211;28;20026;-88
2021/12/18 08:20:06;;;;;;;57.15;29.40;;;5.50;99.90;;;;;;5032424;28;20034;-88
2021/12/18 08:22:32;;;;;;;56.72;29.13;;;4.90;99.90;;;;;;5014939;28;20535;-88
2021/12/18 08:24:58;;;;;;;53.65;28.02;;;5.60;99.90;;;;;;5032397;28;20029;-88
2021/12/18 08:27:24;;;;;;;55.40;27.98;;;4.80;99.90;;;;;;5032908;28;20080;-87
2021/12/18 08:29:49;;;;;;;53.75;28.65;;;4.80;99.90;;;;;;5014412;28;20109;-90
2021/12/18 08:32:15;;;;;;;60.10;30.55;;;4.80;99.90;;;;;;5015106;28;20026;-89
2021/12/18 08:34:41;;;;;;;62.10;32.90;;;5.40;99.90;;;;;;5032686;28;20025;-89
2021/12/18 08:37:06;;;;;;;67.18;32.83;;;5.10;99.90;;;;;;5033775;28;20041;-89
2021/12/18 08:39:32;;;;;;;72.75;38.70;;;5.30;99.90;;;;;;5032613;28;20445;-89
2021/12/18 08:42:02;;;;;;;64.93;35.72;;;5.30;99.90;;;;;;5030756;28;20393;-89
2021/12/18 08:44:28;;;;;;;52.30;28.83;;;5.40;99.90;;;;;;5014818;28;20038;-89
2021/12/18 08:46:54;;;;;;;60.63;28.63;;;4.60;99.90;;;;;;5015148;28;20045;-89
2021/12/18 08:49:21;;;;;;;52.92;29.10;;;4.60;99.90;;;;;;5014929;28;20093;-89
2021/12/18 08:51:46;;;;;;;53.35;29.05;;;4.70;99.90;;;;;;5034975;28;20025;-89
2021/12/18 08:54:12;;;;;;;50.00;28.08;;;5.20;99.90;;;;;;5032557;28;20029;-90
2021/12/18 08:56:38;;;;;;;50.45;27.35;;;4.60;99.90;;;;;;5031536;28;20050;-89
2021/12/18 08:59:03;;;;;;;51.90;27.30;;;4.70;99.90;;;;;;5034602;28;20029;-88
2021/12/18 09:01:30;;;;;;;46.35;25.50;;;4.80;99.90;;;;;;5038305;28;20036;-90
2021/12/18 09:03:56;;;;;;;46.20;25.38;;;5.30;99.90;;;;;;5019034;28;20041;-90
2021/12/18 09:06:22;;;;;;;78.72;44.20;;;4.80;99.90;;;;;;5018710;28;20031;-90
2021/12/18 09:08:48;;;;;;;48.97;26.85;;;5.00;99.90;;;;;;5017843;28;20468;-88
2021/12/18 09:11:14;;;;;;;60.85;34.45;;;4.70;99.90;;;;;;5035534;28;20616;-88
2021/12/18 09:13:40;;;;;;;52.00;27.73;;;5.40;99.90;;;;;;5035732;28;20095;-89
2021/12/18 09:16:06;;;;;;;47.03;26.55;;;4.90;99.90;;;;;;5020251;28;20035;-89
2021/12/18 09:18:32;;;;;;;48.88;27.95;;;5.60;99.90;;;;;;5036446;28;20400;-89
2021/12/18 09:20:57;;;;;;;42.30;24.77;;;5.40;99.90;;;;;;5017572;28;20096;-89
2021/12/18 09:23:23;;;;;;;54.40;30.90;;;4.90;99.90;;;;;;5036180;28;20030;-88
2021/12/18 09:25:49;;;;;;;44.33;23.10;;;5.60;99.90;;;;;;5018302;28;20537;-89
2021/12/18 09:28:15;;;;;;;43.22;24.92;;;5.60;99.90;;;;;;5036042;28;20026;-88
2021/12/18 09:30:41;;;;;;;47.30;27.15;;;5.10;99.90;;;;;;5035894;28;20033;-88
2021/12/18 09:33:13;;;;;;;45.97;25.90;;;5.20;99.90;;;;;;5035384;28;20025;-89
2021/12/18 09:35:39;;;;;;;44.80;24.83;;;5.30;99.90;;;;;;5033500;28;20060;-89
2021/12/18 09:38:07;;;;;;;44.22;23.77;;;5.40;99.90;;;;;;5035644;28;20046;-89
2021/12/18 09:40:33;;;;;;;43.00;25.67;;;5.30;99.90;;;;;;5035391;28;20079;-88
2021/12/18 09:42:58;;;;;;;41.53;23.85;;;5.30;99.90;;;;;;5035173;28;20490;-89
2021/12/18 09:45:24;;;;;;;43.25;23.95;;;5.50;99.90;;;;;;5035547;28;20035;-89
2021/12/18 09:47:50;;;;;;;40.22;22.95;;;5.30;99.90;;;;;;5017561;28;20103;-88
2021/12/18 09:50:18;;;;;;;40.78;22.67;;;5.20;99.90;;;;;;5035457;28;20036;-89
2021/12/18 09:52:45;;;;;;;37.85;22.17;;;5.40;99.90;;;;;;5034949;28;20045;-88
2021/12/18 09:55:12;;;;;;;38.42;21.92;;;6.10;99.90;;;;;;5036742;28;20100;-89
2021/12/18 09:57:39;;;;;;;40.22;22.08;;;6.20;99.90;;;;;;5035190;28;20498;-89
2021/12/18 10:00:08;;;;;;;36.97;21.55;;;6.30;99.90;;;;;;5035126;28;20112;-88
2021/12/18 10:02:33;;;;;;;35.00;21.42;;;5.70;99.90;;;;;;5036389;28;20033;-88
2021/12/18 10:04:59;;;;;;;34.35;20.77;;;6.20;99.90;;;;;;5035328;28;20026;-88
2021/12/18 10:07:26;;;;;;;34.05;20.63;;;6.20;99.90;;;;;;5017337;28;20025;-89
2021/12/18 10:09:58;;;;;;;31.45;18.77;;;6.50;99.90;;;;;;5036007;28;20025;-90
2021/12/18 10:12:26;;;;;;;32.70;20.23;;;6.30;99.90;;;;;;5035257;28;20094;-88
2021/12/18 10:14:58;;;;;;;32.03;20.15;;;5.80;99.90;;;;;;5034007;28;20542;-89
2021/12/18 10:17:42;;;;;;;30.33;18.88;;;5.80;99.90;;;;;;5036506;28;20508;-89
2021/12/18 10:20:10;;;;;;;29.67;18.77;;;6.30;99.90;;;;;;5016972;28;20084;-88
2021/12/18 10:22:45;;;;;;;33.25;19.30;;;6.50;99.90;;;;;;5016996;28;20067;-89
2021/12/18 10:25:12;;;;;;;30.38;18.95;;;5.90;99.90;;;;;;5034476;28;20081;-89
2021/12/18 10:27:38;;;;;;;29.17;18.27;;;6.20;99.90;;;;;;5017583;28;20033;-89
2021/12/18 10:30:22;;;;;;;27.50;18.63;;;6.40;99.90;;;;;;5033774;28;20030;-88
2021/12/18 10:33:00;;;;;;;27.27;16.40;;;6.10;99.90;;;;;;5033412;28;20109;-87
2021/12/18 10:35:46;;;;;;;31.15;17.83;;;6.20;99.90;;;;;;5035075;28;20021;-95
2021/12/18 10:38:40;;;;;;;27.25;17.67;;;5.90;99.90;;;;;;5019149;28;20026;-90
2021/12/18 10:41:25;;;;;;;27.60;16.13;;;5.80;99.90;;;;;;5028612;28;20045;-96
2021/12/18 10:44:09;;;;;;;24.83;15.70;;;5.70;99.90;;;;;;5042149;28;20026;-94
2021/12/18 10:46:40;;;;;;;25.45;16.05;;;5.80;99.90;;;;;;5018838;28;20056;-92
2021/12/18 10:49:14;;;;;;;25.70;16.45;;;5.90;99.90;;;;;;5017459;28;20028;-89
2021/12/18 10:51:41;;;;;;;23.23;14.65;;;5.90;99.90;;;;;;5035685;28;20053;-92
2021/12/18 10:54:13;;;;;;;25.40;15.70;;;6.00;99.90;;;;;;5017004;28;20037;-88
2021/12/18 10:56:41;;;;;;;22.95;14.95;;;6.10;99.90;;;;;;5014482;28;20137;-94
2021/12/18 10:59:45;;;;;;;23.98;15.40;;;6.50;99.90;;;;;;5018554;28;20080;-87
2021/12/18 11:02:14;;;;;;;21.60;14.63;;;5.80;99.90;;;;;;5034679;28;20053;-93
2021/12/18 11:04:44;;;;;;;24.88;15.23;;;5.80;99.90;;;;;;5017744;28;20033;-92
2021/12/18 11:07:30;;;;;;;25.10;15.30;;;6.00;99.90;;;;;;5035993;28;20036;-93
2021/12/18 11:10:13;;;;;;;24.95;16.40;;;6.50;99.90;;;;;;5035480;28;20030;-96
2021/12/18 11:15:25;;;;;;;24.65;16.38;;;6.80;99.90;;;;;;5035390;28;20032;-93
2021/12/18 11:17:51;;;;;;;22.27;15.15;;;6.90;99.90;;;;;;5034069;28;20034;-89
2021/12/18 11:20:18;;;;;;;22.90;14.98;;;7.00;99.90;;;;;;5034262;28;20040;-89
2021/12/18 11:22:44;;;;;;;25.52;16.35;;;6.80;99.90;;;;;;5032355;28;20141;-94
2021/12/18 11:25:11;;;;;;;25.75;16.27;;;7.10;99.90;;;;;;5033880;28;20029;-88
2021/12/18 11:27:39;;;;;;;23.20;14.90;;;7.00;99.90;;;;;;5035297;28;20032;-88
2021/12/18 11:30:10;;;;;;;23.42;14.80;;;7.30;99.90;;;;;;5033311;28;20021;-88
2021/12/18 11:32:53;;;;;;;23.98;15.20;;;7.70;99.90;;;;;;5032630;28;20061;-88
2021/12/18 11:35:21;;;;;;;27.42;16.50;;;8.00;99.90;;;;;;5015571;28;20029;-88
2021/12/18 11:38:01;;;;;;;33.83;21.33;;;8.00;99.90;;;;;;5034478;28;20064;-89
2021/12/18 11:40:34;;;;;;;25.02;16.80;;;7.90;99.90;;;;;;5015804;28;20549;-89
2021/12/18 11:43:04;;;;;;;26.85;17.30;;;7.70;99.90;;;;;;5016361;28;20045;-88
2021/12/18 11:45:32;;;;;;;26.38;15.40;;;7.70;99.90;;;;;;5000392;28;20401;-88
2021/12/18 11:48:00;;;;;;;24.77;16.42;;;7.30;99.90;;;;;;5032574;28;20079;-88
2021/12/18 11:50:35;;;;;;;24.20;16.75;;;7.50;99.90;;;;;;5033113;28;20049;-88
2021/12/18 11:53:01;;;;;;;26.27;15.13;;;7.20;99.90;;;;;;5033971;28;20046;-89
2021/12/18 11:55:35;;;;;;;24.13;15.15;;;7.30;99.90;;;;;;5032920;28;20076;-88
2021/12/18 11:58:13;;;;;;;23.23;15.88;;;7.80;99.90;;;;;;5032834;28;20057;-88
2021/12/18 12:00:51;;;;;;;23.80;15.93;;;9.10;99.90;;;;;;5015675;28;20042;-88
2021/12/18 12:03:38;;;;;;;23.20;15.15;;;8.70;99.90;;;;;;5033010;28;20037;-89
2021/12/18 12:06:35;;;;;;;20.40;13.73;;;8.60;99.90;;;;;;5029139;28;20392;-88
2021/12/18 12:09:34;;;;;;;22.27;15.23;;;9.90;99.90;;;;;;4932650;29;20054;-88
2021/12/18 12:12:08;;;;;;;21.17;14.85;;;9.70;99.90;;;;;;4932998;29;20031;-88
2021/12/18 12:14:39;;;;;;;23.48;15.45;;;10.10;99.90;;;;;;4919775;29;20516;-89
2021/12/18 12:17:09;;;;;;;24.25;15.90;;;10.40;99.90;;;;;;4929721;29;20035;-88
2021/12/18 12:19:35;;;;;;;22.02;14.93;;;11.20;99.90;;;;;;4935569;29;20036;-89
2021/12/18 12:22:20;;;;;;;21.98;14.88;;;13.00;99.90;;;;;;4929039;29;20043;-90
2021/12/18 12:24:56;;;;;;;22.38;16.30;;;12.30;99.90;;;;;;4931238;29;20066;-88
2021/12/18 12:27:30;;;;;;;21.77;15.48;;;11.30;99.90;;;;;;4933442;29;20051;-88
2021/12/18 12:29:57;;;;;;;22.33;16.00;;;10.00;99.90;;;;;;4933135;29;20028;-88
2021/12/18 12:32:24;;;;;;;25.55;17.42;;;10.30;99.90;;;;;;4934412;29;20090;-89
2021/12/18 12:35:09;;;;;;;25.10;16.73;;;9.40;99.90;;;;;;4929130;29;20484;-89
2021/12/18 12:37:42;;;;;;;34.65;23.20;;;9.20;99.90;;;;;;4929080;29;20175;-88
2021/12/18 12:40:12;;;;;;;22.73;15.98;;;9.40;99.90;;;;;;4913287;29;20036;-88
2021/12/18 12:42:42;;;;;;;22.45;15.80;;;9.20;99.90;;;;;;4932305;29;20121;-89
2021/12/18 12:45:14;;;;;;;23.48;15.88;;;9.60;99.90;;;;;;4930758;28;20402;-88
2021/12/18 12:47:51;;;;;;;22.35;15.43;;;8.80;99.90;;;;;;5030464;28;20493;-88
2021/12/18 12:50:20;;;;;;;22.90;15.57;;;9.10;99.90;;;;;;5015572;28;20025;-88
2021/12/18 12:52:56;;;;;;;20.73;15.07;;;9.30;99.90;;;;;;5032506;28;20052;-88
2021/12/18 12:55:25;;;;;;;22.08;15.15;;;9.20;99.90;;;;;;5032654;28;20029;-88
2021/12/18 12:57:55;;;;;;;22.80;16.05;;;9.50;99.90;;;;;;5034672;28;20049;-88
2021/12/18 13:00:23;;;;;;;24.02;17.35;;;8.90;99.90;;;;;;5015070;28;20033;-89
2021/12/18 13:03:07;;;;;;;24.10;16.95;;;9.20;99.90;;;;;;5032275;28;20025;-88
2021/12/18 13:05:45;;;;;;;22.75;15.07;;;10.50;99.90;;;;;;5032953;28;20029;-89
2021/12/18 13:08:10;;;;;;;23.65;16.17;;;11.70;99.90;;;;;;5032298;28;20041;-89
2021/12/18 13:10:38;;;;;;;23.00;16.65;;;12.80;99.90;;;;;;5016551;28;20030;-90
2021/12/18 13:13:08;;;;;;;25.13;16.20;;;12.20;99.90;;;;;;5014382;28;20025;-89
2021/12/18 13:16:13;;;;;;;24.70;17.45;;;13.20;99.90;;;;;;5033867;28;20512;-89
2021/12/18 13:18:44;;;;;;;21.83;16.23;;;13.60;99.90;;;;;;5017890;28;20021;-88
2021/12/18 13:21:40;;;;;;;26.95;16.95;;;14.00;99.90;;;;;;5031809;28;20359;-87
2021/12/18 13:24:08;;;;;;;26.88;16.63;;;14.30;99.90;;;;;;5026593;28;20135;-87
2021/12/18 13:26:41;;;;;;;22.05;16.27;;;14.50;99.90;;;;;;5014546;28;20032;-87
2021/12/18 13:29:13;;;;;;;21.52;15.55;;;14.50;99.90;;;;;;5031947;28;20034;-87
2021/12/18 13:31:46;;;;;;;21.10;16.48;;;14.60;99.90;;;;;;5014475;28;20029;-87
2021/12/18 13:34:18;;;;;;;23.98;16.55;;;15.20;99.90;;;;;;5014427;28;20493;-87
2021/12/18 13:36:55;;;;;;;23.05;17.27;;;15.30;99.90;;;;;;5033672;28;20025;-88
2021/12/18 13:39:29;;;;;;;23.55;17.70;;;14.70;99.90;;;;;;5014873;28;20084;-87
2021/12/18 13:42:18;;;;;;;20.17;15.85;;;15.10;99.90;;;;;;5025876;28;20482;-87